sensor_id;sensor_type;location;lat;lon;timestamp;P1;durP1;ratioP1;P2;durP2;ratioP2
14048;SDS011;7099;53.922;10.728;2022-12-20T00:03:50;34.97;;;13.43;;
14048;SDS011;7099;53.922;10.728;2022-12-20T00:07:57;36.30;;;11.67;;
14048;SDS011;7099;53.922;10.728;2022-12-20T00:12:02;37.57;;;13.60;;
14048;SDS011;7099;53.922;10.728;2022-12-20T00:16:08;33.10;;;13.47;;
14048;SDS011;7099;53.922;10.728;2022-12-20T00:20:22;33.93;;;13.00;;
14048;SDS011;7099;53.922;10.728;2022-12-20T00:24:28;32.37;;;13.47;;
14048;SDS011;7099;53.922;10.728;2022-12-20T00:28:33;39.07;;;13.50;;
14048;SDS011;7099;53.922;10.728;2022-12-20T00:32:39;26.07;;;12.50;;
14048;SDS011;7099;53.922;10.728;2022-12-20T00:36:44;28.53;;;11.60;;
14048;SDS011;7099;53.922;10.728;2022-12-20T00:41:02;27.93;;;12.97;;
14048;SDS011;7099;53.922;10.728;2022-12-20T00:45:16;32.27;;;12.57;;
14048;SDS011;7099;53.922;10.728;2022-12-20T00:49:21;37.97;;;13.00;;
14048;SDS011;7099;53.922;10.728;2022-12-20T00:53:25;24.43;;;12.20;;
14048;SDS011;7099;53.922;10.728;2022-12-20T00:57:31;40.57;;;12.90;;
14048;SDS011;7099;53.922;10.728;2022-12-20T01:01:36;31.53;;;12.50;;
14048;SDS011;7099;53.922;10.728;2022-12-20T01:05:51;31.20;;;12.37;;
14048;SDS011;7099;53.922;10.728;2022-12-20T01:09:58;35.03;;;13.53;;
14048;SDS011;7099;53.922;10.728;2022-12-20T01:14:05;37.87;;;13.17;;
14048;SDS011;7099;53.922;10.728;2022-12-20T01:18:16;37.63;;;12.20;;
14048;SDS011;7099;53.922;10.728;2022-12-20T01:22:21;28.80;;;11.50;;
14048;SDS011;7099;53.922;10.728;2022-12-20T01:26:27;26.10;;;11.00;;
14048;SDS011;7099;53.922;10.728;2022-12-20T01:30:33;28.87;;;11.43;;
14048;SDS011;7099;53.922;10.728;2022-12-20T01:34:38;24.50;;;12.20;;
14048;SDS011;7099;53.922;10.728;2022-12-20T01:38:43;35.30;;;11.67;;
14048;SDS011;7099;53.922;10.728;2022-12-20T01:42:48;28.43;;;10.90;;
14048;SDS011;7099;53.922;10.728;2022-12-20T01:46:54;30.67;;;10.90;;
14048;SDS011;7099;53.922;10.728;2022-12-20T01:50:59;23.70;;;11.67;;
14048;SDS011;7099;53.922;10.728;2022-12-20T01:55:25;25.83;;;10.63;;
14048;SDS011;7099;53.922;10.728;2022-12-20T01:59:30;33.07;;;11.50;;
14048;SDS011;7099;53.922;10.728;2022-12-20T02:03:39;29.03;;;11.00;;
14048;SDS011;7099;53.922;10.728;2022-12-20T02:07:47;29.77;;;11.70;;
14048;SDS011;7099;53.922;10.728;2022-12-20T02:16:21;25.43;;;10.73;;
14048;SDS011;7099;53.922;10.728;2022-12-20T02:33:25;30.30;;;11.70;;
14048;SDS011;7099;53.922;10.728;2022-12-20T02:37:31;30.17;;;11.30;;
14048;SDS011;7099;53.922;10.728;2022-12-20T02:41:41;28.90;;;11.43;;
14048;SDS011;7099;53.922;10.728;2022-12-20T02:45:53;29.70;;;11.40;;
14048;SDS011;7099;53.922;10.728;2022-12-20T02:50:01;27.03;;;11.73;;
14048;SDS011;7099;53.922;10.728;2022-12-20T02:54:08;30.70;;;11.03;;
14048;SDS011;7099;53.922;10.728;2022-12-20T02:58:26;36.40;;;12.07;;
14048;SDS011;7099;53.922;10.728;2022-12-20T03:03:03;30.83;;;11.90;;
14048;SDS011;7099;53.922;10.728;2022-12-20T03:07:27;27.30;;;11.07;;
14048;SDS011;7099;53.922;10.728;2022-12-20T03:11:32;21.73;;;11.00;;
14048;SDS011;7099;53.922;10.728;2022-12-20T03:15:37;25.13;;;11.07;;
14048;SDS011;7099;53.922;10.728;2022-12-20T03:19:42;33.03;;;11.43;;
14048;SDS011;7099;53.922;10.728;2022-12-20T03:23:47;23.70;;;9.97;;
14048;SDS011;7099;53.922;10.728;2022-12-20T03:27:52;37.80;;;11.90;;
14048;SDS011;7099;53.922;10.728;2022-12-20T03:31:57;38.57;;;12.20;;
14048;SDS011;7099;53.922;10.728;2022-12-20T03:36:02;33.63;;;11.87;;
14048;SDS011;7099;53.922;10.728;2022-12-20T03:40:07;27.40;;;11.17;;
14048;SDS011;7099;53.922;10.728;2022-12-20T03:44:13;28.80;;;10.30;;
14048;SDS011;7099;53.922;10.728;2022-12-20T03:48:18;26.77;;;12.20;;
14048;SDS011;7099;53.922;10.728;2022-12-20T03:52:23;26.20;;;11.80;;
14048;SDS011;7099;53.922;10.728;2022-12-20T03:56:28;30.47;;;11.97;;
14048;SDS011;7099;53.922;10.728;2022-12-20T04:00:34;28.77;;;10.57;;
14048;SDS011;7099;53.922;10.728;2022-12-20T04:04:38;38.67;;;11.53;;
14048;SDS011;7099;53.922;10.728;2022-12-20T04:08:44;27.10;;;11.17;;
14048;SDS011;7099;53.922;10.728;2022-12-20T04:12:49;21.47;;;10.10;;
14048;SDS011;7099;53.922;10.728;2022-12-20T04:16:54;30.67;;;10.83;;
14048;SDS011;7099;53.922;10.728;2022-12-20T04:20:59;26.30;;;11.03;;
14048;SDS011;7099;53.922;10.728;2022-12-20T04:25:05;27.07;;;11.13;;
14048;SDS011;7099;53.922;10.728;2022-12-20T04:29:10;27.77;;;10.70;;
14048;SDS011;7099;53.922;10.728;2022-12-20T04:33:15;33.73;;;11.10;;
14048;SDS011;7099;53.922;10.728;2022-12-20T04:37:20;25.20;;;10.87;;
14048;SDS011;7099;53.922;10.728;2022-12-20T04:41:25;25.30;;;11.13;;
14048;SDS011;7099;53.922;10.728;2022-12-20T04:45:30;28.47;;;11.60;;
14048;SDS011;7099;53.922;10.728;2022-12-20T04:49:35;30.67;;;11.57;;
14048;SDS011;7099;53.922;10.728;2022-12-20T04:53:40;30.07;;;9.77;;
14048;SDS011;7099;53.922;10.728;2022-12-20T04:57:54;26.50;;;10.77;;
14048;SDS011;7099;53.922;10.728;2022-12-20T05:02:05;25.17;;;10.97;;
14048;SDS011;7099;53.922;10.728;2022-12-20T05:06:10;31.83;;;12.23;;
14048;SDS011;7099;53.922;10.728;2022-12-20T05:10:15;31.73;;;11.00;;
14048;SDS011;7099;53.922;10.728;2022-12-20T05:14:20;29.50;;;11.20;;
14048;SDS011;7099;53.922;10.728;2022-12-20T05:18:26;29.20;;;11.40;;
14048;SDS011;7099;53.922;10.728;2022-12-20T05:22:31;33.03;;;11.40;;
14048;SDS011;7099;53.922;10.728;2022-12-20T05:26:55;34.57;;;11.70;;
14048;SDS011;7099;53.922;10.728;2022-12-20T05:31:00;35.70;;;12.23;;
14048;SDS011;7099;53.922;10.728;2022-12-20T05:35:06;28.63;;;10.83;;
14048;SDS011;7099;53.922;10.728;2022-12-20T05:39:12;35.17;;;11.33;;
14048;SDS011;7099;53.922;10.728;2022-12-20T05:47:23;32.37;;;12.13;;
14048;SDS011;7099;53.922;10.728;2022-12-20T05:51:28;36.13;;;11.73;;
14048;SDS011;7099;53.922;10.728;2022-12-20T05:55:33;66.53;;;26.73;;
14048;SDS011;7099;53.922;10.728;2022-12-20T05:59:39;57.27;;;16.50;;
14048;SDS011;7099;53.922;10.728;2022-12-20T06:03:43;52.60;;;14.30;;
14048;SDS011;7099;53.922;10.728;2022-12-20T06:07:49;43.47;;;14.50;;
14048;SDS011;7099;53.922;10.728;2022-12-20T06:11:54;47.50;;;13.77;;
14048;SDS011;7099;53.922;10.728;2022-12-20T06:15:59;41.13;;;13.53;;
14048;SDS011;7099;53.922;10.728;2022-12-20T06:20:04;38.80;;;12.70;;
14048;SDS011;7099;53.922;10.728;2022-12-20T06:24:10;37.67;;;13.60;;
14048;SDS011;7099;53.922;10.728;2022-12-20T06:28:15;45.40;;;12.77;;
14048;SDS011;7099;53.922;10.728;2022-12-20T06:32:25;46.57;;;14.50;;
14048;SDS011;7099;53.922;10.728;2022-12-20T06:36:30;51.63;;;13.67;;
14048;SDS011;7099;53.922;10.728;2022-12-20T06:40:35;39.13;;;13.47;;
14048;SDS011;7099;53.922;10.728;2022-12-20T06:44:40;42.30;;;13.80;;
14048;SDS011;7099;53.922;10.728;2022-12-20T06:48:44;43.27;;;12.90;;
14048;SDS011;7099;53.922;10.728;2022-12-20T06:52:49;40.17;;;13.80;;
14048;SDS011;7099;53.922;10.728;2022-12-20T06:56:54;47.47;;;13.80;;
14048;SDS011;7099;53.922;10.728;2022-12-20T07:00:59;39.90;;;14.00;;
14048;SDS011;7099;53.922;10.728;2022-12-20T07:05:04;35.93;;;13.03;;
14048;SDS011;7099;53.922;10.728;2022-12-20T07:09:10;37.90;;;13.90;;
14048;SDS011;7099;53.922;10.728;2022-12-20T07:13:15;36.27;;;12.77;;
14048;SDS011;7099;53.922;10.728;2022-12-20T07:17:19;35.67;;;12.10;;
14048;SDS011;7099;53.922;10.728;2022-12-20T07:21:24;41.67;;;12.80;;
14048;SDS011;7099;53.922;10.728;2022-12-20T07:25:29;40.57;;;14.17;;
14048;SDS011;7099;53.922;10.728;2022-12-20T07:29:34;46.40;;;14.70;;
14048;SDS011;7099;53.922;10.728;2022-12-20T07:33:39;41.67;;;13.77;;
14048;SDS011;7099;53.922;10.728;2022-12-20T07:37:44;48.37;;;13.90;;
14048;SDS011;7099;53.922;10.728;2022-12-20T07:41:52;48.47;;;13.77;;
14048;SDS011;7099;53.922;10.728;2022-12-20T07:45:58;40.53;;;14.43;;
14048;SDS011;7099;53.922;10.728;2022-12-20T07:50:03;35.53;;;13.47;;
14048;SDS011;7099;53.922;10.728;2022-12-20T07:54:19;50.67;;;15.60;;
14048;SDS011;7099;53.922;10.728;2022-12-20T07:58:29;51.60;;;15.63;;
14048;SDS011;7099;53.922;10.728;2022-12-20T08:02:40;44.10;;;14.20;;
14048;SDS011;7099;53.922;10.728;2022-12-20T08:06:55;54.60;;;15.97;;
14048;SDS011;7099;53.922;10.728;2022-12-20T08:11:05;40.63;;;14.57;;
14048;SDS011;7099;53.922;10.728;2022-12-20T08:15:12;52.70;;;14.97;;
14048;SDS011;7099;53.922;10.728;2022-12-20T08:19:17;49.77;;;15.17;;
14048;SDS011;7099;53.922;10.728;2022-12-20T08:23:22;39.70;;;15.20;;
14048;SDS011;7099;53.922;10.728;2022-12-20T08:27:27;49.27;;;15.27;;
14048;SDS011;7099;53.922;10.728;2022-12-20T08:31:32;40.70;;;14.30;;
14048;SDS011;7099;53.922;10.728;2022-12-20T08:35:40;49.37;;;15.07;;
14048;SDS011;7099;53.922;10.728;2022-12-20T08:39:45;51.03;;;15.73;;
14048;SDS011;7099;53.922;10.728;2022-12-20T08:43:50;40.00;;;15.13;;
14048;SDS011;7099;53.922;10.728;2022-12-20T08:47:55;48.90;;;14.57;;
14048;SDS011;7099;53.922;10.728;2022-12-20T08:52:00;48.60;;;15.30;;
14048;SDS011;7099;53.922;10.728;2022-12-20T08:56:06;39.23;;;14.07;;
14048;SDS011;7099;53.922;10.728;2022-12-20T09:00:12;38.77;;;14.43;;
14048;SDS011;7099;53.922;10.728;2022-12-20T09:04:17;41.17;;;13.27;;
14048;SDS011;7099;53.922;10.728;2022-12-20T09:08:22;41.03;;;14.03;;
14048;SDS011;7099;53.922;10.728;2022-12-20T09:12:27;39.43;;;13.37;;
14048;SDS011;7099;53.922;10.728;2022-12-20T09:16:32;36.37;;;13.70;;
14048;SDS011;7099;53.922;10.728;2022-12-20T09:20:41;40.57;;;14.00;;
14048;SDS011;7099;53.922;10.728;2022-12-20T09:24:47;40.40;;;13.57;;
14048;SDS011;7099;53.922;10.728;2022-12-20T09:28:52;38.47;;;13.70;;
14048;SDS011;7099;53.922;10.728;2022-12-20T09:32:59;34.23;;;13.00;;
14048;SDS011;7099;53.922;10.728;2022-12-20T09:37:13;30.40;;;13.23;;
14048;SDS011;7099;53.922;10.728;2022-12-20T09:41:36;42.73;;;12.67;;
14048;SDS011;7099;53.922;10.728;2022-12-20T09:45:45;28.93;;;12.30;;
14048;SDS011;7099;53.922;10.728;2022-12-20T09:49:53;28.80;;;13.00;;
14048;SDS011;7099;53.922;10.728;2022-12-20T09:59:00;30.40;;;12.27;;
14048;SDS011;7099;53.922;10.728;2022-12-20T10:03:33;32.50;;;13.47;;
14048;SDS011;7099;53.922;10.728;2022-12-20T10:12:38;28.00;;;12.27;;
14048;SDS011;7099;53.922;10.728;2022-12-20T10:17:09;28.00;;;11.77;;
14048;SDS011;7099;53.922;10.728;2022-12-20T10:25:47;26.77;;;12.57;;
14048;SDS011;7099;53.922;10.728;2022-12-20T10:29:55;28.57;;;11.67;;
14048;SDS011;7099;53.922;10.728;2022-12-20T10:34:00;26.00;;;12.40;;
14048;SDS011;7099;53.922;10.728;2022-12-20T10:38:06;24.70;;;11.97;;
14048;SDS011;7099;53.922;10.728;2022-12-20T10:42:36;28.00;;;12.67;;
14048;SDS011;7099;53.922;10.728;2022-12-20T10:59:43;28.37;;;12.43;;
14048;SDS011;7099;53.922;10.728;2022-12-20T11:03:58;26.00;;;12.83;;
14048;SDS011;7099;53.922;10.728;2022-12-20T11:08:15;28.83;;;12.33;;
14048;SDS011;7099;53.922;10.728;2022-12-20T11:21:45;25.13;;;11.37;;
14048;SDS011;7099;53.922;10.728;2022-12-20T11:52:40;20.40;;;10.43;;
14048;SDS011;7099;53.922;10.728;2022-12-20T11:56:51;22.73;;;10.60;;
14048;SDS011;7099;53.922;10.728;2022-12-20T12:01:10;15.47;;;8.60;;
14048;SDS011;7099;53.922;10.728;2022-12-20T12:15:02;23.83;;;10.37;;
14048;SDS011;7099;53.922;10.728;2022-12-20T12:18:46;20.13;;;8.90;;
14048;SDS011;7099;53.922;10.728;2022-12-20T12:22:53;21.63;;;9.90;;
14048;SDS011;7099;53.922;10.728;2022-12-20T12:27:09;16.43;;;9.43;;
14048;SDS011;7099;53.922;10.728;2022-12-20T12:31:37;14.03;;;8.63;;
14048;SDS011;7099;53.922;10.728;2022-12-20T12:35:59;16.97;;;8.73;;
14048;SDS011;7099;53.922;10.728;2022-12-20T12:45:20;14.60;;;8.00;;
14048;SDS011;7099;53.922;10.728;2022-12-20T12:49:36;18.93;;;8.50;;
14048;SDS011;7099;53.922;10.728;2022-12-20T12:53:47;15.67;;;8.43;;
14048;SDS011;7099;53.922;10.728;2022-12-20T12:57:55;14.00;;;8.10;;
14048;SDS011;7099;53.922;10.728;2022-12-20T13:18:48;11.40;;;8.40;;
14048;SDS011;7099;53.922;10.728;2022-12-20T13:27:15;17.80;;;7.97;;
14048;SDS011;7099;53.922;10.728;2022-12-20T13:31:44;14.23;;;8.53;;
14048;SDS011;7099;53.922;10.728;2022-12-20T13:36:01;13.20;;;8.47;;
14048;SDS011;7099;53.922;10.728;2022-12-20T13:40:17;13.63;;;8.03;;
14048;SDS011;7099;53.922;10.728;2022-12-20T13:44:51;13.30;;;7.77;;
14048;SDS011;7099;53.922;10.728;2022-12-20T13:49:01;13.10;;;8.10;;
14048;SDS011;7099;53.922;10.728;2022-12-20T13:53:15;18.30;;;8.13;;
14048;SDS011;7099;53.922;10.728;2022-12-20T13:57:26;11.97;;;8.30;;
14048;SDS011;7099;53.922;10.728;2022-12-20T14:01:35;13.10;;;8.67;;
14048;SDS011;7099;53.922;10.728;2022-12-20T14:05:40;14.60;;;7.53;;
14048;SDS011;7099;53.922;10.728;2022-12-20T14:09:45;16.17;;;7.50;;
14048;SDS011;7099;53.922;10.728;2022-12-20T14:14:00;14.10;;;8.00;;
14048;SDS011;7099;53.922;10.728;2022-12-20T14:18:17;15.57;;;7.60;;
14048;SDS011;7099;53.922;10.728;2022-12-20T14:22:28;16.17;;;8.80;;
14048;SDS011;7099;53.922;10.728;2022-12-20T14:26:36;11.47;;;7.13;;
14048;SDS011;7099;53.922;10.728;2022-12-20T14:30:51;16.87;;;8.80;;
14048;SDS011;7099;53.922;10.728;2022-12-20T14:34:56;18.20;;;8.40;;
14048;SDS011;7099;53.922;10.728;2022-12-20T14:39:09;14.73;;;7.77;;
14048;SDS011;7099;53.922;10.728;2022-12-20T14:43:33;17.50;;;8.47;;
14048;SDS011;7099;53.922;10.728;2022-12-20T14:47:48;11.67;;;7.27;;
14048;SDS011;7099;53.922;10.728;2022-12-20T14:56:35;11.87;;;7.63;;
14048;SDS011;7099;53.922;10.728;2022-12-20T15:00:53;12.77;;;8.40;;
14048;SDS011;7099;53.922;10.728;2022-12-20T15:09:42;14.43;;;8.27;;
14048;SDS011;7099;53.922;10.728;2022-12-20T15:13:47;14.57;;;8.17;;
14048;SDS011;7099;53.922;10.728;2022-12-20T15:17:56;18.50;;;7.47;;
14048;SDS011;7099;53.922;10.728;2022-12-20T15:22:01;15.57;;;8.60;;
14048;SDS011;7099;53.922;10.728;2022-12-20T15:26:06;14.13;;;7.67;;
14048;SDS011;7099;53.922;10.728;2022-12-20T15:30:13;13.67;;;8.50;;
14048;SDS011;7099;53.922;10.728;2022-12-20T15:34:22;11.60;;;7.93;;
14048;SDS011;7099;53.922;10.728;2022-12-20T15:38:36;14.00;;;7.90;;
14048;SDS011;7099;53.922;10.728;2022-12-20T15:43:00;13.77;;;8.00;;
14048;SDS011;7099;53.922;10.728;2022-12-20T15:47:08;18.13;;;8.50;;
14048;SDS011;7099;53.922;10.728;2022-12-20T15:51:17;16.10;;;9.90;;
14048;SDS011;7099;53.922;10.728;2022-12-20T15:55:35;12.13;;;7.90;;
14048;SDS011;7099;53.922;10.728;2022-12-20T15:59:43;14.67;;;8.03;;
14048;SDS011;7099;53.922;10.728;2022-12-20T16:04:07;12.27;;;7.37;;
14048;SDS011;7099;53.922;10.728;2022-12-20T16:08:18;13.90;;;7.80;;
14048;SDS011;7099;53.922;10.728;2022-12-20T16:12:24;11.87;;;7.63;;
14048;SDS011;7099;53.922;10.728;2022-12-20T16:16:32;15.23;;;8.83;;
14048;SDS011;7099;53.922;10.728;2022-12-20T16:20:39;16.10;;;7.70;;
14048;SDS011;7099;53.922;10.728;2022-12-20T16:24:45;14.33;;;7.97;;
14048;SDS011;7099;53.922;10.728;2022-12-20T16:28:50;13.00;;;8.60;;
14048;SDS011;7099;53.922;10.728;2022-12-20T16:32:57;18.30;;;6.90;;
14048;SDS011;7099;53.922;10.728;2022-12-20T16:37:02;14.20;;;7.90;;
14048;SDS011;7099;53.922;10.728;2022-12-20T16:41:11;18.80;;;8.23;;
14048;SDS011;7099;53.922;10.728;2022-12-20T16:45:23;16.47;;;7.60;;
14048;SDS011;7099;53.922;10.728;2022-12-20T16:49:31;13.70;;;7.83;;
14048;SDS011;7099;53.922;10.728;2022-12-20T16:53:36;14.77;;;8.03;;
14048;SDS011;7099;53.922;10.728;2022-12-20T16:58:01;16.27;;;8.40;;
14048;SDS011;7099;53.922;10.728;2022-12-20T17:02:19;13.33;;;8.40;;
14048;SDS011;7099;53.922;10.728;2022-12-20T17:06:33;16.73;;;7.67;;
14048;SDS011;7099;53.922;10.728;2022-12-20T17:10:38;11.67;;;7.70;;
14048;SDS011;7099;53.922;10.728;2022-12-20T17:14:43;13.87;;;7.73;;
14048;SDS011;7099;53.922;10.728;2022-12-20T17:18:50;12.70;;;8.23;;
14048;SDS011;7099;53.922;10.728;2022-12-20T17:22:57;14.97;;;8.27;;
14048;SDS011;7099;53.922;10.728;2022-12-20T17:27:20;11.53;;;8.10;;
14048;SDS011;7099;53.922;10.728;2022-12-20T17:31:26;16.50;;;8.53;;
14048;SDS011;7099;53.922;10.728;2022-12-20T17:35:34;17.87;;;8.23;;
14048;SDS011;7099;53.922;10.728;2022-12-20T17:39:39;11.43;;;8.10;;
14048;SDS011;7099;53.922;10.728;2022-12-20T17:43:44;11.77;;;7.30;;
14048;SDS011;7099;53.922;10.728;2022-12-20T17:47:49;13.17;;;8.60;;
14048;SDS011;7099;53.922;10.728;2022-12-20T17:51:55;16.47;;;8.10;;
14048;SDS011;7099;53.922;10.728;2022-12-20T17:56:00;17.83;;;8.57;;
14048;SDS011;7099;53.922;10.728;2022-12-20T18:00:06;13.50;;;8.40;;
14048;SDS011;7099;53.922;10.728;2022-12-20T18:04:19;18.57;;;9.23;;
14048;SDS011;7099;53.922;10.728;2022-12-20T18:08:24;17.07;;;9.03;;
14048;SDS011;7099;53.922;10.728;2022-12-20T18:12:29;20.97;;;9.57;;
14048;SDS011;7099;53.922;10.728;2022-12-20T18:16:40;23.10;;;9.97;;
14048;SDS011;7099;53.922;10.728;2022-12-20T18:20:45;19.37;;;10.07;;
14048;SDS011;7099;53.922;10.728;2022-12-20T18:24:50;19.40;;;9.90;;
14048;SDS011;7099;53.922;10.728;2022-12-20T18:29:00;23.27;;;9.83;;
14048;SDS011;7099;53.922;10.728;2022-12-20T18:33:06;18.07;;;9.97;;
14048;SDS011;7099;53.922;10.728;2022-12-20T18:37:11;20.00;;;11.00;;
14048;SDS011;7099;53.922;10.728;2022-12-20T18:41:17;25.27;;;10.20;;
14048;SDS011;7099;53.922;10.728;2022-12-20T18:45:27;16.97;;;11.13;;
14048;SDS011;7099;53.922;10.728;2022-12-20T18:49:32;18.53;;;10.57;;
14048;SDS011;7099;53.922;10.728;2022-12-20T18:53:37;18.87;;;10.93;;
14048;SDS011;7099;53.922;10.728;2022-12-20T18:57:44;21.00;;;10.00;;
14048;SDS011;7099;53.922;10.728;2022-12-20T19:01:49;21.57;;;10.47;;
14048;SDS011;7099;53.922;10.728;2022-12-20T19:05:55;15.90;;;9.90;;
14048;SDS011;7099;53.922;10.728;2022-12-20T19:10:02;20.13;;;9.47;;
14048;SDS011;7099;53.922;10.728;2022-12-20T19:14:08;21.00;;;10.20;;
14048;SDS011;7099;53.922;10.728;2022-12-20T19:18:14;17.17;;;10.53;;
14048;SDS011;7099;53.922;10.728;2022-12-20T19:22:20;23.27;;;10.10;;
14048;SDS011;7099;53.922;10.728;2022-12-20T19:26:25;21.07;;;10.50;;
14048;SDS011;7099;53.922;10.728;2022-12-20T19:30:31;19.10;;;10.10;;
14048;SDS011;7099;53.922;10.728;2022-12-20T19:34:36;23.40;;;10.20;;
14048;SDS011;7099;53.922;10.728;2022-12-20T19:38:52;21.10;;;9.67;;
14048;SDS011;7099;53.922;10.728;2022-12-20T19:42:59;19.17;;;10.80;;
14048;SDS011;7099;53.922;10.728;2022-12-20T19:47:04;17.80;;;10.60;;
14048;SDS011;7099;53.922;10.728;2022-12-20T19:51:11;18.37;;;10.00;;
14048;SDS011;7099;53.922;10.728;2022-12-20T19:55:18;21.13;;;10.13;;
14048;SDS011;7099;53.922;10.728;2022-12-20T19:59:23;19.33;;;10.97;;
14048;SDS011;7099;53.922;10.728;2022-12-20T20:03:28;18.00;;;10.30;;
14048;SDS011;7099;53.922;10.728;2022-12-20T20:07:34;15.63;;;10.40;;
14048;SDS011;7099;53.922;10.728;2022-12-20T20:11:38;25.80;;;11.17;;
14048;SDS011;7099;53.922;10.728;2022-12-20T20:15:53;15.70;;;10.40;;
14048;SDS011;7099;53.922;10.728;2022-12-20T20:20:01;19.53;;;9.67;;
14048;SDS011;7099;53.922;10.728;2022-12-20T20:24:06;21.67;;;11.13;;
14048;SDS011;7099;53.922;10.728;2022-12-20T20:28:13;28.00;;;11.13;;
14048;SDS011;7099;53.922;10.728;2022-12-20T20:32:18;17.83;;;11.00;;
14048;SDS011;7099;53.922;10.728;2022-12-20T20:36:22;19.10;;;11.73;;
14048;SDS011;7099;53.922;10.728;2022-12-20T20:40:27;22.03;;;11.87;;
14048;SDS011;7099;53.922;10.728;2022-12-20T20:44:32;20.23;;;11.20;;
14048;SDS011;7099;53.922;10.728;2022-12-20T20:48:37;22.17;;;11.10;;
14048;SDS011;7099;53.922;10.728;2022-12-20T20:52:43;24.20;;;11.70;;
14048;SDS011;7099;53.922;10.728;2022-12-20T20:56:48;25.40;;;12.00;;
14048;SDS011;7099;53.922;10.728;2022-12-20T21:00:57;20.03;;;11.20;;
14048;SDS011;7099;53.922;10.728;2022-12-20T21:05:04;23.80;;;11.90;;
14048;SDS011;7099;53.922;10.728;2022-12-20T21:09:30;25.83;;;11.93;;
14048;SDS011;7099;53.922;10.728;2022-12-20T21:13:35;23.43;;;11.83;;
14048;SDS011;7099;53.922;10.728;2022-12-20T21:17:40;30.73;;;13.03;;
14048;SDS011;7099;53.922;10.728;2022-12-20T21:21:46;25.30;;;13.00;;
14048;SDS011;7099;53.922;10.728;2022-12-20T21:25:54;25.83;;;13.80;;
14048;SDS011;7099;53.922;10.728;2022-12-20T21:30:01;21.80;;;12.80;;
14048;SDS011;7099;53.922;10.728;2022-12-20T21:34:07;29.70;;;14.27;;
14048;SDS011;7099;53.922;10.728;2022-12-20T21:38:12;28.20;;;14.50;;
14048;SDS011;7099;53.922;10.728;2022-12-20T21:42:17;27.00;;;13.57;;
14048;SDS011;7099;53.922;10.728;2022-12-20T21:46:22;30.13;;;13.03;;
14048;SDS011;7099;53.922;10.728;2022-12-20T21:50:27;29.47;;;14.47;;
14048;SDS011;7099;53.922;10.728;2022-12-20T21:54:32;31.13;;;15.77;;
14048;SDS011;7099;53.922;10.728;2022-12-20T21:58:37;48.83;;;16.47;;
14048;SDS011;7099;53.922;10.728;2022-12-20T22:02:42;34.40;;;15.77;;
14048;SDS011;7099;53.922;10.728;2022-12-20T22:06:48;37.53;;;15.90;;
14048;SDS011;7099;53.922;10.728;2022-12-20T22:10:57;39.33;;;16.10;;
14048;SDS011;7099;53.922;10.728;2022-12-20T22:15:07;73.97;;;17.17;;
14048;SDS011;7099;53.922;10.728;2022-12-20T22:19:12;174.10;;;20.60;;
14048;SDS011;7099;53.922;10.728;2022-12-20T22:23:18;40.57;;;15.70;;
14048;SDS011;7099;53.922;10.728;2022-12-20T22:27:23;57.27;;;16.17;;
14048;SDS011;7099;53.922;10.728;2022-12-20T22:31:28;51.80;;;15.50;;
14048;SDS011;7099;53.922;10.728;2022-12-20T22:35:34;122.13;;;17.00;;
14048;SDS011;7099;53.922;10.728;2022-12-20T22:39:39;179.97;;;19.37;;
14048;SDS011;7099;53.922;10.728;2022-12-20T22:43:44;162.43;;;18.87;;
14048;SDS011;7099;53.922;10.728;2022-12-20T22:47:50;265.67;;;20.00;;
14048;SDS011;7099;53.922;10.728;2022-12-20T22:51:55;59.07;;;16.30;;
14048;SDS011;7099;53.922;10.728;2022-12-20T22:56:10;295.60;;;23.03;;
14048;SDS011;7099;53.922;10.728;2022-12-20T23:00:16;112.03;;;17.93;;
14048;SDS011;7099;53.922;10.728;2022-12-20T23:04:21;184.33;;;19.53;;
14048;SDS011;7099;53.922;10.728;2022-12-20T23:08:27;46.17;;;18.63;;
14048;SDS011;7099;53.922;10.728;2022-12-20T23:12:35;150.70;;;18.70;;
14048;SDS011;7099;53.922;10.728;2022-12-20T23:16:58;120.17;;;19.50;;
14048;SDS011;7099;53.922;10.728;2022-12-20T23:21:04;83.87;;;18.30;;
14048;SDS011;7099;53.922;10.728;2022-12-20T23:25:28;71.50;;;17.80;;
14048;SDS011;7099;53.922;10.728;2022-12-20T23:29:33;58.07;;;17.23;;
14048;SDS011;7099;53.922;10.728;2022-12-20T23:33:38;61.83;;;17.70;;
14048;SDS011;7099;53.922;10.728;2022-12-20T23:37:43;205.13;;;21.40;;
14048;SDS011;7099;53.922;10.728;2022-12-20T23:41:49;71.50;;;17.10;;
14048;SDS011;7099;53.922;10.728;2022-12-20T23:46:00;32.17;;;14.30;;
14048;SDS011;7099;53.922;10.728;2022-12-20T23:50:10;41.17;;;15.50;;
14048;SDS011;7099;53.922;10.728;2022-12-20T23:54:15;49.87;;;15.27;;
14048;SDS011;7099;53.922;10.728;2022-12-20T23:58:24;167.77;;;18.47;;
